Terminal Aerodrome Forecast
Issued by NWS

Home | Current Version | Previous Version | Graphics & Text | Print | Product List | Glossary On
Versions: 1 2 3 4 5 6 7 8 9 10 11 12 13 14 15 16
000
FTUS41 KCLE 181700
TAFFDY
TAF
KFDY 181738Z 1818/1918 27008KT P6SM OVC020
      TEMPO 1819/1823 5SM -SN OVC015
     FM182300 29004KT P6SM OVC018
     FM191300 32004KT P6SM OVC012=

USA.gov is the U.S. government's official web portal to all federal, state and local government web resources and services.